sensor_id;sensor_type;location;lat;lon;timestamp;P1;durP1;ratioP1;P2;durP2;ratioP2
52868;SDS011;39100;53.480;6.158;2022-11-20T00:00:43;2.75;;;1.50;;
52868;SDS011;39100;53.480;6.158;2022-11-20T00:03:08;2.80;;;1.60;;
52868;SDS011;39100;53.480;6.158;2022-11-20T00:05:34;2.40;;;1.60;;
52868;SDS011;39100;53.480;6.158;2022-11-20T00:08:00;1.48;;;1.17;;
52868;SDS011;39100;53.480;6.158;2022-11-20T00:10:25;2.22;;;1.30;;
52868;SDS011;39100;53.480;6.158;2022-11-20T00:12:51;1.55;;;1.23;;
52868;SDS011;39100;53.480;6.158;2022-11-20T00:15:17;1.75;;;1.10;;
52868;SDS011;39100;53.480;6.158;2022-11-20T00:17:42;3.15;;;1.38;;
52868;SDS011;39100;53.480;6.158;2022-11-20T00:20:08;3.42;;;1.45;;
52868;SDS011;39100;53.480;6.158;2022-11-20T00:22:34;1.42;;;1.10;;
52868;SDS011;39100;53.480;6.158;2022-11-20T00:25:00;2.53;;;1.60;;
52868;SDS011;39100;53.480;6.158;2022-11-20T00:27:25;2.55;;;1.10;;
52868;SDS011;39100;53.480;6.158;2022-11-20T00:29:51;2.03;;;1.40;;
52868;SDS011;39100;53.480;6.158;2022-11-20T00:32:16;2.13;;;1.38;;
52868;SDS011;39100;53.480;6.158;2022-11-20T00:34:42;3.33;;;1.70;;
52868;SDS011;39100;53.480;6.158;2022-11-20T00:37:07;2.17;;;1.45;;
52868;SDS011;39100;53.480;6.158;2022-11-20T00:39:33;4.47;;;2.03;;
52868;SDS011;39100;53.480;6.158;2022-11-20T00:41:58;2.50;;;1.73;;
52868;SDS011;39100;53.480;6.158;2022-11-20T00:44:24;2.30;;;1.40;;
52868;SDS011;39100;53.480;6.158;2022-11-20T00:46:50;2.58;;;1.90;;
52868;SDS011;39100;53.480;6.158;2022-11-20T00:49:15;2.95;;;2.10;;
52868;SDS011;39100;53.480;6.158;2022-11-20T00:51:41;3.08;;;1.73;;
52868;SDS011;39100;53.480;6.158;2022-11-20T00:54:06;2.75;;;1.92;;
52868;SDS011;39100;53.480;6.158;2022-11-20T00:56:32;2.85;;;1.75;;
52868;SDS011;39100;53.480;6.158;2022-11-20T00:58:59;2.85;;;1.85;;
52868;SDS011;39100;53.480;6.158;2022-11-20T01:01:25;3.88;;;2.33;;
52868;SDS011;39100;53.480;6.158;2022-11-20T01:03:52;2.90;;;2.00;;
52868;SDS011;39100;53.480;6.158;2022-11-20T01:06:29;3.72;;;2.13;;
52868;SDS011;39100;53.480;6.158;2022-11-20T01:08:57;3.33;;;2.08;;
52868;SDS011;39100;53.480;6.158;2022-11-20T01:11:28;2.97;;;2.20;;
52868;SDS011;39100;53.480;6.158;2022-11-20T01:16:27;3.50;;;2.47;;
52868;SDS011;39100;53.480;6.158;2022-11-20T01:18:56;3.22;;;2.25;;
52868;SDS011;39100;53.480;6.158;2022-11-20T01:21:28;3.50;;;2.05;;
52868;SDS011;39100;53.480;6.158;2022-11-20T01:23:55;4.15;;;2.22;;
52868;SDS011;39100;53.480;6.158;2022-11-20T01:26:23;3.22;;;1.70;;
52868;SDS011;39100;53.480;6.158;2022-11-20T01:28:54;2.97;;;1.92;;
52868;SDS011;39100;53.480;6.158;2022-11-20T01:31:21;3.50;;;2.42;;
52868;SDS011;39100;53.480;6.158;2022-11-20T01:34:12;3.13;;;2.00;;
52868;SDS011;39100;53.480;6.158;2022-11-20T01:39:06;2.25;;;1.83;;
52868;SDS011;39100;53.480;6.158;2022-11-20T01:41:35;2.53;;;1.83;;
52868;SDS011;39100;53.480;6.158;2022-11-20T01:44:21;2.85;;;1.85;;
52868;SDS011;39100;53.480;6.158;2022-11-20T01:47:05;2.95;;;1.55;;
52868;SDS011;39100;53.480;6.158;2022-11-20T01:49:35;2.42;;;1.75;;
52868;SDS011;39100;53.480;6.158;2022-11-20T01:52:05;2.60;;;1.27;;
52868;SDS011;39100;53.480;6.158;2022-11-20T01:54:48;1.33;;;1.15;;
52868;SDS011;39100;53.480;6.158;2022-11-20T01:57:17;2.03;;;1.00;;
52868;SDS011;39100;53.480;6.158;2022-11-20T01:59:47;2.97;;;1.73;;
52868;SDS011;39100;53.480;6.158;2022-11-20T02:02:19;1.98;;;1.30;;
52868;SDS011;39100;53.480;6.158;2022-11-20T02:04:45;1.90;;;1.30;;
52868;SDS011;39100;53.480;6.158;2022-11-20T02:07:12;2.53;;;1.27;;
52868;SDS011;39100;53.480;6.158;2022-11-20T02:09:38;1.88;;;1.10;;
52868;SDS011;39100;53.480;6.158;2022-11-20T02:12:04;1.52;;;1.25;;
52868;SDS011;39100;53.480;6.158;2022-11-20T02:14:30;1.60;;;1.02;;
52868;SDS011;39100;53.480;6.158;2022-11-20T02:16:56;2.20;;;1.30;;
52868;SDS011;39100;53.480;6.158;2022-11-20T02:19:23;1.83;;;1.23;;
52868;SDS011;39100;53.480;6.158;2022-11-20T02:24:41;2.00;;;1.30;;
52868;SDS011;39100;53.480;6.158;2022-11-20T02:27:12;2.13;;;1.38;;
52868;SDS011;39100;53.480;6.158;2022-11-20T02:29:40;1.90;;;1.48;;
52868;SDS011;39100;53.480;6.158;2022-11-20T02:32:22;2.80;;;1.27;;
52868;SDS011;39100;53.480;6.158;2022-11-20T02:34:53;1.95;;;1.42;;
52868;SDS011;39100;53.480;6.158;2022-11-20T02:37:20;2.97;;;1.63;;
52868;SDS011;39100;53.480;6.158;2022-11-20T02:39:46;2.97;;;1.45;;
52868;SDS011;39100;53.480;6.158;2022-11-20T02:42:14;2.08;;;1.65;;
52868;SDS011;39100;53.480;6.158;2022-11-20T02:44:40;2.42;;;1.52;;
52868;SDS011;39100;53.480;6.158;2022-11-20T02:47:05;2.55;;;1.75;;
52868;SDS011;39100;53.480;6.158;2022-11-20T02:49:31;2.22;;;1.70;;
52868;SDS011;39100;53.480;6.158;2022-11-20T02:51:56;2.25;;;1.30;;
52868;SDS011;39100;53.480;6.158;2022-11-20T02:54:22;2.38;;;1.50;;
52868;SDS011;39100;53.480;6.158;2022-11-20T02:56:48;2.42;;;1.70;;
52868;SDS011;39100;53.480;6.158;2022-11-20T02:59:14;3.05;;;1.73;;
52868;SDS011;39100;53.480;6.158;2022-11-20T03:01:40;3.17;;;2.00;;
52868;SDS011;39100;53.480;6.158;2022-11-20T03:04:05;2.72;;;1.75;;
52868;SDS011;39100;53.480;6.158;2022-11-20T03:06:31;4.05;;;2.10;;
52868;SDS011;39100;53.480;6.158;2022-11-20T03:08:57;2.20;;;1.50;;
52868;SDS011;39100;53.480;6.158;2022-11-20T03:11:22;3.83;;;1.90;;
52868;SDS011;39100;53.480;6.158;2022-11-20T03:13:48;3.03;;;1.67;;
52868;SDS011;39100;53.480;6.158;2022-11-20T03:16:20;3.17;;;1.40;;
52868;SDS011;39100;53.480;6.158;2022-11-20T03:18:47;4.22;;;2.05;;
52868;SDS011;39100;53.480;6.158;2022-11-20T03:21:13;2.08;;;1.45;;
52868;SDS011;39100;53.480;6.158;2022-11-20T03:23:39;2.72;;;2.05;;
52868;SDS011;39100;53.480;6.158;2022-11-20T03:26:09;3.22;;;1.80;;
52868;SDS011;39100;53.480;6.158;2022-11-20T03:28:38;1.70;;;1.33;;
52868;SDS011;39100;53.480;6.158;2022-11-20T03:31:07;2.13;;;1.67;;
52868;SDS011;39100;53.480;6.158;2022-11-20T03:33:35;3.53;;;1.57;;
52868;SDS011;39100;53.480;6.158;2022-11-20T03:36:01;3.17;;;1.98;;
52868;SDS011;39100;53.480;6.158;2022-11-20T03:38:31;3.13;;;1.75;;
52868;SDS011;39100;53.480;6.158;2022-11-20T03:40:58;3.22;;;2.05;;
52868;SDS011;39100;53.480;6.158;2022-11-20T03:43:25;3.20;;;2.00;;
52868;SDS011;39100;53.480;6.158;2022-11-20T03:45:51;2.30;;;1.63;;
52868;SDS011;39100;53.480;6.158;2022-11-20T03:48:16;3.40;;;2.25;;
52868;SDS011;39100;53.480;6.158;2022-11-20T03:50:42;3.33;;;1.83;;
52868;SDS011;39100;53.480;6.158;2022-11-20T03:53:07;3.67;;;1.95;;
52868;SDS011;39100;53.480;6.158;2022-11-20T03:55:33;2.13;;;1.52;;
52868;SDS011;39100;53.480;6.158;2022-11-20T03:57:59;3.63;;;2.13;;
52868;SDS011;39100;53.480;6.158;2022-11-20T04:00:24;3.42;;;1.98;;
52868;SDS011;39100;53.480;6.158;2022-11-20T04:02:50;3.45;;;1.80;;
52868;SDS011;39100;53.480;6.158;2022-11-20T04:05:15;3.60;;;1.67;;
52868;SDS011;39100;53.480;6.158;2022-11-20T04:07:41;2.63;;;1.50;;
52868;SDS011;39100;53.480;6.158;2022-11-20T04:10:07;3.47;;;1.70;;
52868;SDS011;39100;53.480;6.158;2022-11-20T04:12:32;2.00;;;1.42;;
52868;SDS011;39100;53.480;6.158;2022-11-20T04:14:58;2.75;;;1.67;;
52868;SDS011;39100;53.480;6.158;2022-11-20T04:17:24;2.88;;;1.70;;
52868;SDS011;39100;53.480;6.158;2022-11-20T04:19:49;3.20;;;1.95;;
52868;SDS011;39100;53.480;6.158;2022-11-20T04:22:15;2.22;;;1.65;;
52868;SDS011;39100;53.480;6.158;2022-11-20T04:24:40;2.88;;;1.85;;
52868;SDS011;39100;53.480;6.158;2022-11-20T04:27:06;3.15;;;1.77;;
52868;SDS011;39100;53.480;6.158;2022-11-20T04:29:32;3.90;;;1.98;;
52868;SDS011;39100;53.480;6.158;2022-11-20T04:31:57;2.53;;;1.65;;
52868;SDS011;39100;53.480;6.158;2022-11-20T04:34:23;2.05;;;1.45;;
52868;SDS011;39100;53.480;6.158;2022-11-20T04:36:48;2.22;;;1.60;;
52868;SDS011;39100;53.480;6.158;2022-11-20T04:39:14;1.60;;;1.40;;
52868;SDS011;39100;53.480;6.158;2022-11-20T04:41:43;2.30;;;1.65;;
52868;SDS011;39100;53.480;6.158;2022-11-20T04:44:08;2.17;;;1.45;;
52868;SDS011;39100;53.480;6.158;2022-11-20T04:46:38;3.50;;;1.95;;
52868;SDS011;39100;53.480;6.158;2022-11-20T04:49:05;3.50;;;1.88;;
52868;SDS011;39100;53.480;6.158;2022-11-20T04:51:32;4.30;;;1.70;;
52868;SDS011;39100;53.480;6.158;2022-11-20T04:53:58;2.92;;;2.35;;
52868;SDS011;39100;53.480;6.158;2022-11-20T04:56:23;2.30;;;1.63;;
52868;SDS011;39100;53.480;6.158;2022-11-20T04:58:49;3.20;;;1.80;;
52868;SDS011;39100;53.480;6.158;2022-11-20T05:01:16;2.60;;;1.88;;
52868;SDS011;39100;53.480;6.158;2022-11-20T05:03:43;3.35;;;2.20;;
52868;SDS011;39100;53.480;6.158;2022-11-20T05:06:10;2.63;;;2.05;;
52868;SDS011;39100;53.480;6.158;2022-11-20T05:08:39;5.20;;;2.42;;
52868;SDS011;39100;53.480;6.158;2022-11-20T05:11:09;3.97;;;2.28;;
52868;SDS011;39100;53.480;6.158;2022-11-20T05:13:39;4.47;;;2.80;;
52868;SDS011;39100;53.480;6.158;2022-11-20T05:16:15;3.80;;;2.42;;
52868;SDS011;39100;53.480;6.158;2022-11-20T05:18:43;4.40;;;3.17;;
52868;SDS011;39100;53.480;6.158;2022-11-20T05:21:09;7.40;;;3.00;;
52868;SDS011;39100;53.480;6.158;2022-11-20T05:23:36;2.97;;;2.03;;
52868;SDS011;39100;53.480;6.158;2022-11-20T05:26:02;4.13;;;2.60;;
52868;SDS011;39100;53.480;6.158;2022-11-20T05:28:30;4.75;;;2.85;;
52868;SDS011;39100;53.480;6.158;2022-11-20T05:30:56;3.55;;;2.30;;
52868;SDS011;39100;53.480;6.158;2022-11-20T05:33:28;3.53;;;2.72;;
52868;SDS011;39100;53.480;6.158;2022-11-20T05:35:57;5.88;;;3.47;;
52868;SDS011;39100;53.480;6.158;2022-11-20T05:38:23;4.35;;;2.90;;
52868;SDS011;39100;53.480;6.158;2022-11-20T05:40:48;4.97;;;2.78;;
52868;SDS011;39100;53.480;6.158;2022-11-20T05:43:14;4.95;;;3.00;;
52868;SDS011;39100;53.480;6.158;2022-11-20T05:45:39;3.88;;;2.78;;
52868;SDS011;39100;53.480;6.158;2022-11-20T05:48:05;5.10;;;3.42;;
52868;SDS011;39100;53.480;6.158;2022-11-20T05:50:31;5.20;;;3.08;;
52868;SDS011;39100;53.480;6.158;2022-11-20T05:52:59;4.82;;;2.88;;
52868;SDS011;39100;53.480;6.158;2022-11-20T05:55:25;4.82;;;2.72;;
52868;SDS011;39100;53.480;6.158;2022-11-20T05:57:52;3.90;;;2.83;;
52868;SDS011;39100;53.480;6.158;2022-11-20T06:00:19;4.35;;;3.05;;
52868;SDS011;39100;53.480;6.158;2022-11-20T06:02:45;5.10;;;2.58;;
52868;SDS011;39100;53.480;6.158;2022-11-20T06:05:11;6.10;;;3.65;;
52868;SDS011;39100;53.480;6.158;2022-11-20T06:07:36;4.72;;;3.10;;
52868;SDS011;39100;53.480;6.158;2022-11-20T06:10:02;4.53;;;2.83;;
52868;SDS011;39100;53.480;6.158;2022-11-20T06:12:27;6.70;;;3.40;;
52868;SDS011;39100;53.480;6.158;2022-11-20T06:14:53;5.28;;;3.28;;
52868;SDS011;39100;53.480;6.158;2022-11-20T06:17:18;4.45;;;3.40;;
52868;SDS011;39100;53.480;6.158;2022-11-20T06:19:44;5.07;;;3.10;;
52868;SDS011;39100;53.480;6.158;2022-11-20T06:22:09;4.10;;;2.97;;
52868;SDS011;39100;53.480;6.158;2022-11-20T06:24:35;3.67;;;2.83;;
52868;SDS011;39100;53.480;6.158;2022-11-20T06:27:00;5.53;;;3.03;;
52868;SDS011;39100;53.480;6.158;2022-11-20T06:29:26;3.85;;;2.60;;
52868;SDS011;39100;53.480;6.158;2022-11-20T06:31:51;4.93;;;3.08;;
52868;SDS011;39100;53.480;6.158;2022-11-20T06:34:17;4.40;;;2.33;;
52868;SDS011;39100;53.480;6.158;2022-11-20T06:36:43;5.38;;;2.83;;
52868;SDS011;39100;53.480;6.158;2022-11-20T06:39:08;4.82;;;2.38;;
52868;SDS011;39100;53.480;6.158;2022-11-20T06:41:34;4.82;;;2.20;;
52868;SDS011;39100;53.480;6.158;2022-11-20T06:43:59;5.13;;;2.63;;
52868;SDS011;39100;53.480;6.158;2022-11-20T06:46:25;3.65;;;2.17;;
52868;SDS011;39100;53.480;6.158;2022-11-20T06:48:50;3.85;;;2.42;;
52868;SDS011;39100;53.480;6.158;2022-11-20T06:51:16;4.05;;;2.50;;
52868;SDS011;39100;53.480;6.158;2022-11-20T06:53:42;4.40;;;2.05;;
52868;SDS011;39100;53.480;6.158;2022-11-20T06:56:08;3.47;;;2.53;;
52868;SDS011;39100;53.480;6.158;2022-11-20T06:58:34;3.88;;;2.05;;
52868;SDS011;39100;53.480;6.158;2022-11-20T07:01:01;3.55;;;2.40;;
52868;SDS011;39100;53.480;6.158;2022-11-20T07:03:28;3.25;;;1.95;;
52868;SDS011;39100;53.480;6.158;2022-11-20T07:05:54;2.90;;;1.67;;
52868;SDS011;39100;53.480;6.158;2022-11-20T07:08:21;4.95;;;1.70;;
52868;SDS011;39100;53.480;6.158;2022-11-20T07:10:47;1.70;;;1.40;;
52868;SDS011;39100;53.480;6.158;2022-11-20T07:13:12;3.17;;;1.98;;
52868;SDS011;39100;53.480;6.158;2022-11-20T07:15:38;2.47;;;1.75;;
52868;SDS011;39100;53.480;6.158;2022-11-20T07:18:04;2.17;;;1.50;;
52868;SDS011;39100;53.480;6.158;2022-11-20T07:20:29;1.65;;;1.20;;
52868;SDS011;39100;53.480;6.158;2022-11-20T07:22:55;1.55;;;1.05;;
52868;SDS011;39100;53.480;6.158;2022-11-20T07:25:25;1.38;;;1.13;;
52868;SDS011;39100;53.480;6.158;2022-11-20T07:27:52;2.42;;;1.27;;
52868;SDS011;39100;53.480;6.158;2022-11-20T07:30:18;2.38;;;1.70;;
52868;SDS011;39100;53.480;6.158;2022-11-20T07:32:47;2.65;;;1.65;;
52868;SDS011;39100;53.480;6.158;2022-11-20T07:35:15;2.22;;;1.48;;
52868;SDS011;39100;53.480;6.158;2022-11-20T07:37:41;2.25;;;1.42;;
52868;SDS011;39100;53.480;6.158;2022-11-20T07:40:06;2.08;;;1.63;;
52868;SDS011;39100;53.480;6.158;2022-11-20T07:42:32;1.73;;;0.90;;
52868;SDS011;39100;53.480;6.158;2022-11-20T07:44:58;1.27;;;0.98;;
52868;SDS011;39100;53.480;6.158;2022-11-20T07:47:23;1.20;;;0.77;;
52868;SDS011;39100;53.480;6.158;2022-11-20T07:49:49;4.00;;;1.60;;
52868;SDS011;39100;53.480;6.158;2022-11-20T07:52:15;2.40;;;1.35;;
52868;SDS011;39100;53.480;6.158;2022-11-20T07:54:41;2.97;;;1.50;;
52868;SDS011;39100;53.480;6.158;2022-11-20T07:57:06;3.05;;;1.80;;
52868;SDS011;39100;53.480;6.158;2022-11-20T07:59:32;3.35;;;2.13;;
52868;SDS011;39100;53.480;6.158;2022-11-20T08:01:57;3.75;;;2.30;;
52868;SDS011;39100;53.480;6.158;2022-11-20T08:04:23;3.67;;;2.28;;
52868;SDS011;39100;53.480;6.158;2022-11-20T08:06:48;3.03;;;1.70;;
52868;SDS011;39100;53.480;6.158;2022-11-20T08:09:14;3.03;;;1.90;;
52868;SDS011;39100;53.480;6.158;2022-11-20T08:11:39;2.72;;;1.80;;
52868;SDS011;39100;53.480;6.158;2022-11-20T08:14:24;2.55;;;1.83;;
52868;SDS011;39100;53.480;6.158;2022-11-20T08:16:49;2.78;;;1.45;;
52868;SDS011;39100;53.480;6.158;2022-11-20T08:19:16;2.38;;;1.80;;
52868;SDS011;39100;53.480;6.158;2022-11-20T08:21:42;2.65;;;1.55;;
52868;SDS011;39100;53.480;6.158;2022-11-20T08:24:09;2.40;;;1.55;;
52868;SDS011;39100;53.480;6.158;2022-11-20T08:26:36;3.55;;;1.95;;
52868;SDS011;39100;53.480;6.158;2022-11-20T08:29:02;2.70;;;1.27;;
52868;SDS011;39100;53.480;6.158;2022-11-20T08:31:28;3.08;;;1.77;;
52868;SDS011;39100;53.480;6.158;2022-11-20T08:33:54;3.53;;;1.92;;
52868;SDS011;39100;53.480;6.158;2022-11-20T08:36:21;3.05;;;1.88;;
52868;SDS011;39100;53.480;6.158;2022-11-20T08:38:47;4.15;;;2.25;;
52868;SDS011;39100;53.480;6.158;2022-11-20T08:41:20;3.15;;;2.08;;
52868;SDS011;39100;53.480;6.158;2022-11-20T08:43:49;3.97;;;2.50;;
52868;SDS011;39100;53.480;6.158;2022-11-20T08:46:16;3.40;;;2.13;;
52868;SDS011;39100;53.480;6.158;2022-11-20T08:48:42;3.60;;;2.17;;
52868;SDS011;39100;53.480;6.158;2022-11-20T08:51:08;3.47;;;2.08;;
52868;SDS011;39100;53.480;6.158;2022-11-20T08:53:34;4.03;;;2.50;;
52868;SDS011;39100;53.480;6.158;2022-11-20T08:55:59;5.25;;;2.30;;
52868;SDS011;39100;53.480;6.158;2022-11-20T08:58:25;2.28;;;1.83;;
52868;SDS011;39100;53.480;6.158;2022-11-20T09:00:51;3.03;;;2.17;;
52868;SDS011;39100;53.480;6.158;2022-11-20T09:03:17;2.88;;;1.70;;
52868;SDS011;39100;53.480;6.158;2022-11-20T09:05:42;4.13;;;2.45;;
52868;SDS011;39100;53.480;6.158;2022-11-20T09:08:08;3.42;;;2.47;;
52868;SDS011;39100;53.480;6.158;2022-11-20T09:10:33;5.07;;;2.72;;
52868;SDS011;39100;53.480;6.158;2022-11-20T09:12:59;4.10;;;2.85;;
52868;SDS011;39100;53.480;6.158;2022-11-20T09:15:25;4.50;;;2.95;;
52868;SDS011;39100;53.480;6.158;2022-11-20T09:17:53;4.85;;;3.00;;
52868;SDS011;39100;53.480;6.158;2022-11-20T09:20:21;4.70;;;3.20;;
52868;SDS011;39100;53.480;6.158;2022-11-20T09:22:46;4.68;;;3.42;;
52868;SDS011;39100;53.480;6.158;2022-11-20T09:25:12;5.30;;;3.03;;
52868;SDS011;39100;53.480;6.158;2022-11-20T09:27:38;4.95;;;2.95;;
52868;SDS011;39100;53.480;6.158;2022-11-20T09:30:04;5.10;;;3.40;;
52868;SDS011;39100;53.480;6.158;2022-11-20T09:32:30;4.20;;;2.90;;
52868;SDS011;39100;53.480;6.158;2022-11-20T09:34:55;5.95;;;3.00;;
52868;SDS011;39100;53.480;6.158;2022-11-20T09:37:21;4.95;;;2.90;;
52868;SDS011;39100;53.480;6.158;2022-11-20T09:39:46;5.10;;;3.58;;
52868;SDS011;39100;53.480;6.158;2022-11-20T09:42:15;4.43;;;3.00;;
52868;SDS011;39100;53.480;6.158;2022-11-20T09:50:46;6.90;;;4.18;;
52868;SDS011;39100;53.480;6.158;2022-11-20T09:53:30;4.90;;;3.15;;
52868;SDS011;39100;53.480;6.158;2022-11-20T09:56:03;5.35;;;3.40;;
52868;SDS011;39100;53.480;6.158;2022-11-20T09:58:42;6.10;;;4.20;;
52868;SDS011;39100;53.480;6.158;2022-11-20T10:03:51;7.00;;;4.57;;
52868;SDS011;39100;53.480;6.158;2022-11-20T10:06:34;8.32;;;4.63;;
52868;SDS011;39100;53.480;6.158;2022-11-20T10:14:25;7.93;;;4.63;;
52868;SDS011;39100;53.480;6.158;2022-11-20T10:22:51;7.22;;;3.95;;
52868;SDS011;39100;53.480;6.158;2022-11-20T10:25:33;6.22;;;3.95;;
52868;SDS011;39100;53.480;6.158;2022-11-20T10:31:12;8.15;;;4.80;;
52868;SDS011;39100;53.480;6.158;2022-11-20T10:33:52;9.15;;;5.03;;
52868;SDS011;39100;53.480;6.158;2022-11-20T10:36:25;6.50;;;4.13;;
52868;SDS011;39100;53.480;6.158;2022-11-20T10:41:30;6.93;;;3.97;;
52868;SDS011;39100;53.480;6.158;2022-11-20T10:44:12;7.63;;;4.35;;
52868;SDS011;39100;53.480;6.158;2022-11-20T10:47:00;7.93;;;4.03;;
52868;SDS011;39100;53.480;6.158;2022-11-20T10:49:25;8.13;;;4.78;;
52868;SDS011;39100;53.480;6.158;2022-11-20T10:51:58;6.88;;;4.43;;
52868;SDS011;39100;53.480;6.158;2022-11-20T11:00:06;7.68;;;5.05;;
52868;SDS011;39100;53.480;6.158;2022-11-20T11:02:45;7.00;;;4.95;;
52868;SDS011;39100;53.480;6.158;2022-11-20T11:07:53;5.80;;;3.85;;
52868;SDS011;39100;53.480;6.158;2022-11-20T11:12:51;6.75;;;4.93;;
52868;SDS011;39100;53.480;6.158;2022-11-20T11:15:27;7.22;;;4.20;;
52868;SDS011;39100;53.480;6.158;2022-11-20T11:17:55;6.93;;;4.53;;
52868;SDS011;39100;53.480;6.158;2022-11-20T11:20:22;7.05;;;4.80;;
52868;SDS011;39100;53.480;6.158;2022-11-20T11:22:51;8.15;;;5.03;;
52868;SDS011;39100;53.480;6.158;2022-11-20T11:25:25;7.05;;;5.22;;
52868;SDS011;39100;53.480;6.158;2022-11-20T11:27:58;9.38;;;5.20;;
52868;SDS011;39100;53.480;6.158;2022-11-20T11:30:42;6.50;;;4.00;;
52868;SDS011;39100;53.480;6.158;2022-11-20T11:33:10;12.55;;;5.07;;
52868;SDS011;39100;53.480;6.158;2022-11-20T11:35:44;7.00;;;4.47;;
52868;SDS011;39100;53.480;6.158;2022-11-20T11:38:17;8.85;;;5.00;;
52868;SDS011;39100;53.480;6.158;2022-11-20T11:40:59;7.90;;;5.10;;
52868;SDS011;39100;53.480;6.158;2022-11-20T11:43:26;9.50;;;5.90;;
52868;SDS011;39100;53.480;6.158;2022-11-20T11:51:29;7.53;;;4.15;;
52868;SDS011;39100;53.480;6.158;2022-11-20T11:56:28;6.30;;;3.85;;
52868;SDS011;39100;53.480;6.158;2022-11-20T11:58:56;8.40;;;4.00;;
52868;SDS011;39100;53.480;6.158;2022-11-20T12:06:53;6.15;;;3.85;;
52868;SDS011;39100;53.480;6.158;2022-11-20T12:09:28;4.80;;;3.33;;
52868;SDS011;39100;53.480;6.158;2022-11-20T12:12:13;6.13;;;3.55;;
52868;SDS011;39100;53.480;6.158;2022-11-20T12:14:46;5.40;;;3.08;;
52868;SDS011;39100;53.480;6.158;2022-11-20T12:17:15;4.38;;;3.22;;
52868;SDS011;39100;53.480;6.158;2022-11-20T12:19:41;4.53;;;2.80;;
52868;SDS011;39100;53.480;6.158;2022-11-20T12:22:10;4.05;;;2.85;;
52868;SDS011;39100;53.480;6.158;2022-11-20T12:30:27;3.53;;;2.67;;
52868;SDS011;39100;53.480;6.158;2022-11-20T12:33:02;3.45;;;2.67;;
52868;SDS011;39100;53.480;6.158;2022-11-20T12:35:42;3.97;;;2.92;;
52868;SDS011;39100;53.480;6.158;2022-11-20T12:56:13;4.03;;;2.92;;
52868;SDS011;39100;53.480;6.158;2022-11-20T13:01:52;2.63;;;2.03;;
52868;SDS011;39100;53.480;6.158;2022-11-20T13:07:07;3.40;;;2.00;;
52868;SDS011;39100;53.480;6.158;2022-11-20T13:09:38;3.63;;;2.15;;
52868;SDS011;39100;53.480;6.158;2022-11-20T13:12:13;3.92;;;2.05;;
52868;SDS011;39100;53.480;6.158;2022-11-20T13:17:54;3.22;;;2.38;;
52868;SDS011;39100;53.480;6.158;2022-11-20T13:20:24;2.60;;;1.60;;
52868;SDS011;39100;53.480;6.158;2022-11-20T13:22:51;3.38;;;2.03;;
52868;SDS011;39100;53.480;6.158;2022-11-20T13:27:58;3.50;;;2.63;;
52868;SDS011;39100;53.480;6.158;2022-11-20T13:30:26;2.13;;;1.88;;
52868;SDS011;39100;53.480;6.158;2022-11-20T13:32:54;4.65;;;2.28;;
52868;SDS011;39100;53.480;6.158;2022-11-20T13:35:35;4.50;;;1.75;;
52868;SDS011;39100;53.480;6.158;2022-11-20T13:40:39;2.70;;;1.88;;
52868;SDS011;39100;53.480;6.158;2022-11-20T13:43:34;2.70;;;1.95;;
52868;SDS011;39100;53.480;6.158;2022-11-20T13:46:03;5.18;;;2.28;;
52868;SDS011;39100;53.480;6.158;2022-11-20T13:48:32;2.63;;;1.92;;
52868;SDS011;39100;53.480;6.158;2022-11-20T13:57:06;5.32;;;2.72;;
52868;SDS011;39100;53.480;6.158;2022-11-20T14:02:42;3.17;;;2.10;;
52868;SDS011;39100;53.480;6.158;2022-11-20T14:05:20;3.75;;;2.38;;
52868;SDS011;39100;53.480;6.158;2022-11-20T14:07:48;3.95;;;1.80;;
52868;SDS011;39100;53.480;6.158;2022-11-20T14:10:23;3.63;;;1.90;;
52868;SDS011;39100;53.480;6.158;2022-11-20T14:12:50;3.28;;;2.15;;
52868;SDS011;39100;53.480;6.158;2022-11-20T14:15:29;4.88;;;2.03;;
52868;SDS011;39100;53.480;6.158;2022-11-20T14:17:56;2.58;;;1.95;;
52868;SDS011;39100;53.480;6.158;2022-11-20T14:20:23;3.15;;;1.75;;
52868;SDS011;39100;53.480;6.158;2022-11-20T14:22:56;3.33;;;2.03;;
52868;SDS011;39100;53.480;6.158;2022-11-20T14:25:22;1.90;;;1.70;;
52868;SDS011;39100;53.480;6.158;2022-11-20T14:27:56;3.35;;;1.80;;
52868;SDS011;39100;53.480;6.158;2022-11-20T14:30:24;2.17;;;1.55;;
52868;SDS011;39100;53.480;6.158;2022-11-20T14:33:10;3.05;;;1.85;;
52868;SDS011;39100;53.480;6.158;2022-11-20T14:35:40;3.60;;;2.03;;
52868;SDS011;39100;53.480;6.158;2022-11-20T14:38:12;2.55;;;1.60;;
52868;SDS011;39100;53.480;6.158;2022-11-20T14:40:40;3.63;;;1.88;;
52868;SDS011;39100;53.480;6.158;2022-11-20T14:43:17;2.78;;;1.85;;
52868;SDS011;39100;53.480;6.158;2022-11-20T14:46:05;5.35;;;2.95;;
52868;SDS011;39100;53.480;6.158;2022-11-20T14:48:33;4.57;;;2.20;;
52868;SDS011;39100;53.480;6.158;2022-11-20T14:51:04;4.40;;;2.75;;
52868;SDS011;39100;53.480;6.158;2022-11-20T14:53:30;3.75;;;2.25;;
52868;SDS011;39100;53.480;6.158;2022-11-20T14:55:59;3.30;;;2.40;;
52868;SDS011;39100;53.480;6.158;2022-11-20T14:58:27;4.47;;;2.40;;
52868;SDS011;39100;53.480;6.158;2022-11-20T15:00:59;5.07;;;2.92;;
52868;SDS011;39100;53.480;6.158;2022-11-20T15:03:36;5.05;;;2.83;;
52868;SDS011;39100;53.480;6.158;2022-11-20T15:06:03;4.13;;;2.38;;
52868;SDS011;39100;53.480;6.158;2022-11-20T15:08:31;4.88;;;3.00;;
52868;SDS011;39100;53.480;6.158;2022-11-20T15:10:56;3.47;;;2.17;;
52868;SDS011;39100;53.480;6.158;2022-11-20T15:13:32;2.90;;;2.10;;
52868;SDS011;39100;53.480;6.158;2022-11-20T15:16:01;3.55;;;1.95;;
52868;SDS011;39100;53.480;6.158;2022-11-20T15:18:31;4.93;;;2.80;;
52868;SDS011;39100;53.480;6.158;2022-11-20T15:21:02;3.22;;;2.70;;
52868;SDS011;39100;53.480;6.158;2022-11-20T15:23:29;4.38;;;2.42;;
52868;SDS011;39100;53.480;6.158;2022-11-20T15:25:55;3.45;;;2.33;;
52868;SDS011;39100;53.480;6.158;2022-11-20T15:28:22;4.82;;;2.42;;
52868;SDS011;39100;53.480;6.158;2022-11-20T15:30:54;4.72;;;2.75;;
52868;SDS011;39100;53.480;6.158;2022-11-20T15:33:20;4.13;;;3.00;;
52868;SDS011;39100;53.480;6.158;2022-11-20T15:35:46;4.28;;;2.55;;
52868;SDS011;39100;53.480;6.158;2022-11-20T15:38:12;4.43;;;2.20;;
52868;SDS011;39100;53.480;6.158;2022-11-20T15:40:38;3.80;;;2.22;;
52868;SDS011;39100;53.480;6.158;2022-11-20T15:43:03;3.80;;;2.35;;
52868;SDS011;39100;53.480;6.158;2022-11-20T15:45:32;3.70;;;2.85;;
52868;SDS011;39100;53.480;6.158;2022-11-20T15:47:59;4.78;;;2.58;;
52868;SDS011;39100;53.480;6.158;2022-11-20T15:50:27;3.92;;;2.47;;
52868;SDS011;39100;53.480;6.158;2022-11-20T15:52:59;4.30;;;2.28;;
52868;SDS011;39100;53.480;6.158;2022-11-20T15:55:24;4.95;;;2.78;;
52868;SDS011;39100;53.480;6.158;2022-11-20T15:57:50;5.63;;;3.08;;
52868;SDS011;39100;53.480;6.158;2022-11-20T16:00:16;4.63;;;2.28;;
52868;SDS011;39100;53.480;6.158;2022-11-20T16:02:41;4.78;;;3.03;;
52868;SDS011;39100;53.480;6.158;2022-11-20T16:05:11;3.20;;;2.38;;
52868;SDS011;39100;53.480;6.158;2022-11-20T16:07:37;4.93;;;3.10;;
52868;SDS011;39100;53.480;6.158;2022-11-20T16:10:03;3.95;;;2.50;;
52868;SDS011;39100;53.480;6.158;2022-11-20T16:12:29;3.17;;;2.35;;
52868;SDS011;39100;53.480;6.158;2022-11-20T16:15:13;3.17;;;2.17;;
52868;SDS011;39100;53.480;6.158;2022-11-20T16:17:57;4.13;;;2.00;;
52868;SDS011;39100;53.480;6.158;2022-11-20T16:20:23;4.10;;;2.13;;
52868;SDS011;39100;53.480;6.158;2022-11-20T16:22:48;3.67;;;2.40;;
52868;SDS011;39100;53.480;6.158;2022-11-20T16:25:14;3.80;;;2.53;;
52868;SDS011;39100;53.480;6.158;2022-11-20T16:27:39;5.57;;;3.17;;
52868;SDS011;39100;53.480;6.158;2022-11-20T16:30:05;4.38;;;2.70;;
52868;SDS011;39100;53.480;6.158;2022-11-20T16:32:31;3.35;;;2.28;;
52868;SDS011;39100;53.480;6.158;2022-11-20T16:34:57;4.35;;;2.55;;
52868;SDS011;39100;53.480;6.158;2022-11-20T16:37:22;4.88;;;2.90;;
52868;SDS011;39100;53.480;6.158;2022-11-20T16:39:48;4.15;;;2.17;;